Rockford, Washington
Current Conditions -  °F | °C
As of 11:53 PM on Thursday 18 Dec 2014 (Local Time) from KSFF Reporting Station
Haze Haze  
Wind Chill: 39°   Ceiling: 5000
Heat Index: 39°   Visibility: 4mi
Dew Point: 37°   Wind: 0mph
Humidity: 93%   Direction: NA
Pressure: 29.93"   Gusts: NA
Location:  47.45°N, 117.13°W
Report Text: KSFF 190753Z AUTO 00000KT 4SM BR FEW041 BKN050 OVC075 04/03 A2993 RMK AO2 SLP145 T00390028 400610028
Loading
Personal Weather Stations






























Interactive Weather Map New forecast layout! Learn more

10-Day Weather Forecast

Advertisements
Track Severe Weather on mobile